sensor_id;sensor_type;location;lat;lon;timestamp;P1;durP1;ratioP1;P2;durP2;ratioP2
13230;SDS011;6681;53.254;10.398;2023-01-19T00:00:29;16.53;;;10.57;;
13230;SDS011;6681;53.254;10.398;2023-01-19T00:03:13;16.13;;;9.87;;
13230;SDS011;6681;53.254;10.398;2023-01-19T00:05:42;15.03;;;9.10;;
13230;SDS011;6681;53.254;10.398;2023-01-19T00:08:08;17.87;;;10.17;;
13230;SDS011;6681;53.254;10.398;2023-01-19T00:10:40;19.50;;;9.63;;
13230;SDS011;6681;53.254;10.398;2023-01-19T00:13:08;15.07;;;9.17;;
13230;SDS011;6681;53.254;10.398;2023-01-19T00:15:33;16.77;;;10.50;;
13230;SDS011;6681;53.254;10.398;2023-01-19T00:17:59;11.67;;;9.67;;
13230;SDS011;6681;53.254;10.398;2023-01-19T00:20:24;13.03;;;8.40;;
13230;SDS011;6681;53.254;10.398;2023-01-19T00:22:50;15.10;;;9.57;;
13230;SDS011;6681;53.254;10.398;2023-01-19T00:25:20;16.43;;;10.10;;
13230;SDS011;6681;53.254;10.398;2023-01-19T00:27:46;13.43;;;8.93;;
13230;SDS011;6681;53.254;10.398;2023-01-19T00:30:13;16.00;;;9.87;;
13230;SDS011;6681;53.254;10.398;2023-01-19T00:32:40;13.73;;;10.40;;
13230;SDS011;6681;53.254;10.398;2023-01-19T00:35:06;14.40;;;9.60;;
13230;SDS011;6681;53.254;10.398;2023-01-19T00:37:32;13.30;;;9.63;;
13230;SDS011;6681;53.254;10.398;2023-01-19T00:39:57;14.90;;;9.27;;
13230;SDS011;6681;53.254;10.398;2023-01-19T00:42:23;15.40;;;10.30;;
13230;SDS011;6681;53.254;10.398;2023-01-19T00:45:04;13.60;;;9.33;;
13230;SDS011;6681;53.254;10.398;2023-01-19T00:47:33;16.20;;;10.10;;
13230;SDS011;6681;53.254;10.398;2023-01-19T00:49:59;16.97;;;10.30;;
13230;SDS011;6681;53.254;10.398;2023-01-19T00:52:24;13.73;;;8.80;;
13230;SDS011;6681;53.254;10.398;2023-01-19T00:54:50;14.07;;;9.10;;
13230;SDS011;6681;53.254;10.398;2023-01-19T00:57:16;14.80;;;8.63;;
13230;SDS011;6681;53.254;10.398;2023-01-19T00:59:43;15.63;;;9.23;;
13230;SDS011;6681;53.254;10.398;2023-01-19T01:02:09;16.07;;;9.47;;
13230;SDS011;6681;53.254;10.398;2023-01-19T01:04:35;16.13;;;8.40;;
13230;SDS011;6681;53.254;10.398;2023-01-19T01:07:02;14.87;;;9.63;;
13230;SDS011;6681;53.254;10.398;2023-01-19T01:09:28;12.70;;;9.63;;
13230;SDS011;6681;53.254;10.398;2023-01-19T01:11:54;17.90;;;9.37;;
13230;SDS011;6681;53.254;10.398;2023-01-19T01:14:20;16.60;;;10.53;;
13230;SDS011;6681;53.254;10.398;2023-01-19T01:16:46;15.97;;;9.73;;
13230;SDS011;6681;53.254;10.398;2023-01-19T01:19:12;15.07;;;8.77;;
13230;SDS011;6681;53.254;10.398;2023-01-19T01:21:38;14.03;;;9.07;;
13230;SDS011;6681;53.254;10.398;2023-01-19T01:24:03;18.37;;;10.30;;
13230;SDS011;6681;53.254;10.398;2023-01-19T01:26:29;13.83;;;9.80;;
13230;SDS011;6681;53.254;10.398;2023-01-19T01:28:55;14.60;;;9.37;;
13230;SDS011;6681;53.254;10.398;2023-01-19T01:31:20;15.17;;;9.37;;
13230;SDS011;6681;53.254;10.398;2023-01-19T01:33:46;15.77;;;9.20;;
13230;SDS011;6681;53.254;10.398;2023-01-19T01:36:11;15.10;;;8.37;;
13230;SDS011;6681;53.254;10.398;2023-01-19T01:38:38;12.50;;;8.40;;
13230;SDS011;6681;53.254;10.398;2023-01-19T01:41:04;11.23;;;8.57;;
13230;SDS011;6681;53.254;10.398;2023-01-19T01:43:47;13.20;;;9.43;;
13230;SDS011;6681;53.254;10.398;2023-01-19T01:46:18;16.67;;;10.70;;
13230;SDS011;6681;53.254;10.398;2023-01-19T01:48:54;17.27;;;9.90;;
13230;SDS011;6681;53.254;10.398;2023-01-19T01:56:49;14.63;;;9.10;;
13230;SDS011;6681;53.254;10.398;2023-01-19T01:59:21;11.70;;;8.57;;
13230;SDS011;6681;53.254;10.398;2023-01-19T02:01:54;18.13;;;9.50;;
13230;SDS011;6681;53.254;10.398;2023-01-19T02:04:42;13.00;;;9.20;;
13230;SDS011;6681;53.254;10.398;2023-01-19T02:07:14;13.80;;;9.20;;
13230;SDS011;6681;53.254;10.398;2023-01-19T02:10:03;14.00;;;9.70;;
13230;SDS011;6681;53.254;10.398;2023-01-19T02:12:48;14.30;;;9.63;;
13230;SDS011;6681;53.254;10.398;2023-01-19T02:15:33;13.60;;;9.07;;
13230;SDS011;6681;53.254;10.398;2023-01-19T02:17:58;11.20;;;8.60;;
13230;SDS011;6681;53.254;10.398;2023-01-19T02:20:25;14.87;;;8.27;;
13230;SDS011;6681;53.254;10.398;2023-01-19T02:22:54;12.50;;;9.50;;
13230;SDS011;6681;53.254;10.398;2023-01-19T02:25:25;14.30;;;9.37;;
13230;SDS011;6681;53.254;10.398;2023-01-19T02:27:51;12.53;;;7.80;;
13230;SDS011;6681;53.254;10.398;2023-01-19T02:30:17;11.30;;;8.73;;
13230;SDS011;6681;53.254;10.398;2023-01-19T02:32:43;11.73;;;8.77;;
13230;SDS011;6681;53.254;10.398;2023-01-19T02:35:09;13.17;;;8.27;;
13230;SDS011;6681;53.254;10.398;2023-01-19T02:37:36;12.97;;;8.50;;
13230;SDS011;6681;53.254;10.398;2023-01-19T02:40:06;10.67;;;9.10;;
13230;SDS011;6681;53.254;10.398;2023-01-19T02:42:36;13.43;;;10.00;;
13230;SDS011;6681;53.254;10.398;2023-01-19T02:45:07;11.63;;;8.10;;
13230;SDS011;6681;53.254;10.398;2023-01-19T02:47:41;15.10;;;8.93;;
13230;SDS011;6681;53.254;10.398;2023-01-19T02:52:56;12.80;;;8.63;;
13230;SDS011;6681;53.254;10.398;2023-01-19T02:55:28;13.47;;;8.20;;
13230;SDS011;6681;53.254;10.398;2023-01-19T03:00:41;18.50;;;9.40;;
13230;SDS011;6681;53.254;10.398;2023-01-19T03:03:24;19.13;;;9.70;;
13230;SDS011;6681;53.254;10.398;2023-01-19T03:11:24;18.53;;;9.13;;
13230;SDS011;6681;53.254;10.398;2023-01-19T03:13:58;11.80;;;8.30;;
13230;SDS011;6681;53.254;10.398;2023-01-19T03:21:47;12.33;;;8.50;;
13230;SDS011;6681;53.254;10.398;2023-01-19T03:24:16;13.37;;;9.00;;
13230;SDS011;6681;53.254;10.398;2023-01-19T03:26:48;14.57;;;9.17;;
13230;SDS011;6681;53.254;10.398;2023-01-19T03:29:20;15.60;;;9.10;;
13230;SDS011;6681;53.254;10.398;2023-01-19T03:31:48;11.83;;;7.77;;
13230;SDS011;6681;53.254;10.398;2023-01-19T03:34:16;15.93;;;9.70;;
13230;SDS011;6681;53.254;10.398;2023-01-19T03:36:47;13.37;;;8.20;;
13230;SDS011;6681;53.254;10.398;2023-01-19T03:39:17;15.17;;;9.20;;
13230;SDS011;6681;53.254;10.398;2023-01-19T03:41:47;12.63;;;8.70;;
13230;SDS011;6681;53.254;10.398;2023-01-19T03:44:15;14.53;;;9.20;;
13230;SDS011;6681;53.254;10.398;2023-01-19T03:46:41;10.87;;;8.57;;
13230;SDS011;6681;53.254;10.398;2023-01-19T03:49:07;16.30;;;9.17;;
13230;SDS011;6681;53.254;10.398;2023-01-19T03:51:36;12.43;;;8.90;;
13230;SDS011;6681;53.254;10.398;2023-01-19T03:54:03;12.07;;;7.70;;
13230;SDS011;6681;53.254;10.398;2023-01-19T03:56:30;12.17;;;9.07;;
13230;SDS011;6681;53.254;10.398;2023-01-19T03:59:02;11.57;;;8.30;;
13230;SDS011;6681;53.254;10.398;2023-01-19T04:01:29;13.63;;;9.43;;
13230;SDS011;6681;53.254;10.398;2023-01-19T04:03:55;12.87;;;8.13;;
13230;SDS011;6681;53.254;10.398;2023-01-19T04:06:21;13.07;;;8.03;;
13230;SDS011;6681;53.254;10.398;2023-01-19T04:08:50;14.70;;;9.97;;
13230;SDS011;6681;53.254;10.398;2023-01-19T04:11:16;14.07;;;8.50;;
13230;SDS011;6681;53.254;10.398;2023-01-19T04:13:42;20.93;;;9.37;;
13230;SDS011;6681;53.254;10.398;2023-01-19T04:16:08;15.10;;;8.47;;
13230;SDS011;6681;53.254;10.398;2023-01-19T04:18:35;11.23;;;8.83;;
13230;SDS011;6681;53.254;10.398;2023-01-19T04:21:01;11.80;;;8.73;;
13230;SDS011;6681;53.254;10.398;2023-01-19T04:23:28;11.77;;;8.60;;
13230;SDS011;6681;53.254;10.398;2023-01-19T04:25:58;12.10;;;8.37;;
13230;SDS011;6681;53.254;10.398;2023-01-19T04:28:27;12.90;;;8.50;;
13230;SDS011;6681;53.254;10.398;2023-01-19T04:30:53;12.80;;;8.00;;
13230;SDS011;6681;53.254;10.398;2023-01-19T04:33:19;13.93;;;9.13;;
13230;SDS011;6681;53.254;10.398;2023-01-19T04:35:45;11.70;;;8.10;;
13230;SDS011;6681;53.254;10.398;2023-01-19T04:38:12;11.00;;;7.80;;
13230;SDS011;6681;53.254;10.398;2023-01-19T04:40:37;14.07;;;10.03;;
13230;SDS011;6681;53.254;10.398;2023-01-19T04:43:03;13.13;;;9.50;;
13230;SDS011;6681;53.254;10.398;2023-01-19T04:45:29;16.73;;;9.43;;
13230;SDS011;6681;53.254;10.398;2023-01-19T04:47:54;13.83;;;9.40;;
13230;SDS011;6681;53.254;10.398;2023-01-19T04:50:20;14.80;;;10.20;;
13230;SDS011;6681;53.254;10.398;2023-01-19T04:52:46;15.90;;;8.70;;
13230;SDS011;6681;53.254;10.398;2023-01-19T04:55:13;11.67;;;8.17;;
13230;SDS011;6681;53.254;10.398;2023-01-19T04:57:39;15.00;;;11.10;;
13230;SDS011;6681;53.254;10.398;2023-01-19T05:00:05;18.17;;;9.97;;
13230;SDS011;6681;53.254;10.398;2023-01-19T05:02:32;13.63;;;9.10;;
13230;SDS011;6681;53.254;10.398;2023-01-19T05:04:58;14.97;;;9.63;;
13230;SDS011;6681;53.254;10.398;2023-01-19T05:07:24;16.07;;;9.27;;
13230;SDS011;6681;53.254;10.398;2023-01-19T05:09:49;11.63;;;8.57;;
13230;SDS011;6681;53.254;10.398;2023-01-19T05:12:15;17.70;;;10.47;;
13230;SDS011;6681;53.254;10.398;2023-01-19T05:14:40;11.90;;;9.47;;
13230;SDS011;6681;53.254;10.398;2023-01-19T05:17:07;13.13;;;8.93;;
13230;SDS011;6681;53.254;10.398;2023-01-19T05:19:33;14.43;;;8.37;;
13230;SDS011;6681;53.254;10.398;2023-01-19T05:22:00;18.23;;;9.70;;
13230;SDS011;6681;53.254;10.398;2023-01-19T05:24:27;15.47;;;8.67;;
13230;SDS011;6681;53.254;10.398;2023-01-19T05:26:52;14.73;;;10.27;;
13230;SDS011;6681;53.254;10.398;2023-01-19T05:29:18;11.47;;;8.40;;
13230;SDS011;6681;53.254;10.398;2023-01-19T05:31:44;14.33;;;9.63;;
13230;SDS011;6681;53.254;10.398;2023-01-19T05:34:10;15.47;;;10.87;;
13230;SDS011;6681;53.254;10.398;2023-01-19T05:36:36;17.90;;;9.27;;
13230;SDS011;6681;53.254;10.398;2023-01-19T05:39:01;12.50;;;8.83;;
13230;SDS011;6681;53.254;10.398;2023-01-19T05:41:27;13.30;;;9.43;;
13230;SDS011;6681;53.254;10.398;2023-01-19T05:43:56;13.07;;;9.07;;
13230;SDS011;6681;53.254;10.398;2023-01-19T05:46:22;11.43;;;8.23;;
13230;SDS011;6681;53.254;10.398;2023-01-19T05:48:48;16.97;;;9.03;;
13230;SDS011;6681;53.254;10.398;2023-01-19T05:51:14;14.43;;;10.17;;
13230;SDS011;6681;53.254;10.398;2023-01-19T05:53:40;19.50;;;10.93;;
13230;SDS011;6681;53.254;10.398;2023-01-19T05:56:06;16.10;;;10.13;;
13230;SDS011;6681;53.254;10.398;2023-01-19T05:58:33;14.30;;;9.90;;
13230;SDS011;6681;53.254;10.398;2023-01-19T06:01:02;14.90;;;10.80;;
13230;SDS011;6681;53.254;10.398;2023-01-19T06:03:30;13.97;;;9.50;;
13230;SDS011;6681;53.254;10.398;2023-01-19T06:05:57;13.83;;;9.57;;
13230;SDS011;6681;53.254;10.398;2023-01-19T06:08:23;21.27;;;11.07;;
13230;SDS011;6681;53.254;10.398;2023-01-19T06:10:48;16.53;;;11.20;;
13230;SDS011;6681;53.254;10.398;2023-01-19T06:13:14;17.00;;;10.93;;
13230;SDS011;6681;53.254;10.398;2023-01-19T06:15:40;16.57;;;10.07;;
13230;SDS011;6681;53.254;10.398;2023-01-19T06:18:06;20.40;;;11.43;;
13230;SDS011;6681;53.254;10.398;2023-01-19T06:20:32;17.87;;;11.67;;
13230;SDS011;6681;53.254;10.398;2023-01-19T06:22:58;17.93;;;11.47;;
13230;SDS011;6681;53.254;10.398;2023-01-19T06:25:23;17.13;;;10.00;;
13230;SDS011;6681;53.254;10.398;2023-01-19T06:27:51;22.57;;;12.60;;
13230;SDS011;6681;53.254;10.398;2023-01-19T06:30:16;17.13;;;11.67;;
13230;SDS011;6681;53.254;10.398;2023-01-19T06:32:42;18.03;;;11.60;;
13230;SDS011;6681;53.254;10.398;2023-01-19T06:35:08;14.93;;;10.57;;
13230;SDS011;6681;53.254;10.398;2023-01-19T06:37:34;16.43;;;11.60;;
13230;SDS011;6681;53.254;10.398;2023-01-19T06:40:00;16.03;;;12.20;;
13230;SDS011;6681;53.254;10.398;2023-01-19T06:42:25;24.27;;;11.97;;
13230;SDS011;6681;53.254;10.398;2023-01-19T06:44:51;16.40;;;11.90;;
13230;SDS011;6681;53.254;10.398;2023-01-19T06:47:16;16.50;;;10.87;;
13230;SDS011;6681;53.254;10.398;2023-01-19T06:49:42;21.60;;;11.77;;
13230;SDS011;6681;53.254;10.398;2023-01-19T06:52:08;18.77;;;13.17;;
13230;SDS011;6681;53.254;10.398;2023-01-19T06:54:35;18.00;;;12.17;;
13230;SDS011;6681;53.254;10.398;2023-01-19T06:57:01;16.63;;;12.00;;
13230;SDS011;6681;53.254;10.398;2023-01-19T06:59:27;20.03;;;11.03;;
13230;SDS011;6681;53.254;10.398;2023-01-19T07:01:53;21.50;;;13.03;;
13230;SDS011;6681;53.254;10.398;2023-01-19T07:04:20;19.67;;;11.90;;
13230;SDS011;6681;53.254;10.398;2023-01-19T07:06:46;18.70;;;12.37;;
13230;SDS011;6681;53.254;10.398;2023-01-19T07:09:16;19.67;;;12.30;;
13230;SDS011;6681;53.254;10.398;2023-01-19T07:11:41;18.87;;;12.17;;
13230;SDS011;6681;53.254;10.398;2023-01-19T07:14:07;20.33;;;13.83;;
13230;SDS011;6681;53.254;10.398;2023-01-19T07:16:33;14.37;;;10.63;;
13230;SDS011;6681;53.254;10.398;2023-01-19T07:18:58;18.33;;;12.40;;
13230;SDS011;6681;53.254;10.398;2023-01-19T07:21:24;16.63;;;11.83;;
13230;SDS011;6681;53.254;10.398;2023-01-19T07:23:52;18.27;;;12.40;;
13230;SDS011;6681;53.254;10.398;2023-01-19T07:26:18;14.63;;;11.63;;
13230;SDS011;6681;53.254;10.398;2023-01-19T07:28:48;17.23;;;11.77;;
13230;SDS011;6681;53.254;10.398;2023-01-19T07:31:14;16.47;;;11.63;;
13230;SDS011;6681;53.254;10.398;2023-01-19T07:33:40;21.30;;;12.33;;
13230;SDS011;6681;53.254;10.398;2023-01-19T07:36:06;12.87;;;10.50;;
13230;SDS011;6681;53.254;10.398;2023-01-19T07:38:33;18.40;;;12.63;;
13230;SDS011;6681;53.254;10.398;2023-01-19T07:41:02;15.97;;;11.70;;
13230;SDS011;6681;53.254;10.398;2023-01-19T07:43:29;16.40;;;12.67;;
13230;SDS011;6681;53.254;10.398;2023-01-19T07:45:56;20.60;;;13.00;;
13230;SDS011;6681;53.254;10.398;2023-01-19T07:48:26;16.27;;;11.83;;
13230;SDS011;6681;53.254;10.398;2023-01-19T07:50:52;19.13;;;11.80;;
13230;SDS011;6681;53.254;10.398;2023-01-19T07:53:18;17.13;;;11.67;;
13230;SDS011;6681;53.254;10.398;2023-01-19T07:55:44;19.17;;;12.70;;
13230;SDS011;6681;53.254;10.398;2023-01-19T07:58:09;19.47;;;13.03;;
13230;SDS011;6681;53.254;10.398;2023-01-19T08:00:35;17.33;;;11.23;;
13230;SDS011;6681;53.254;10.398;2023-01-19T08:03:02;16.10;;;12.80;;
13230;SDS011;6681;53.254;10.398;2023-01-19T08:05:28;20.37;;;11.50;;
13230;SDS011;6681;53.254;10.398;2023-01-19T08:07:55;16.87;;;12.23;;
13230;SDS011;6681;53.254;10.398;2023-01-19T08:10:22;21.53;;;12.43;;
13230;SDS011;6681;53.254;10.398;2023-01-19T08:12:51;18.07;;;13.87;;
13230;SDS011;6681;53.254;10.398;2023-01-19T08:15:17;17.83;;;13.53;;
13230;SDS011;6681;53.254;10.398;2023-01-19T08:17:42;17.17;;;12.50;;
13230;SDS011;6681;53.254;10.398;2023-01-19T08:20:08;17.40;;;12.03;;
13230;SDS011;6681;53.254;10.398;2023-01-19T08:22:35;20.43;;;13.07;;
13230;SDS011;6681;53.254;10.398;2023-01-19T08:25:01;16.70;;;11.90;;
13230;SDS011;6681;53.254;10.398;2023-01-19T08:27:27;23.47;;;12.63;;
13230;SDS011;6681;53.254;10.398;2023-01-19T08:29:54;19.23;;;12.07;;
13230;SDS011;6681;53.254;10.398;2023-01-19T08:32:20;21.30;;;12.50;;
13230;SDS011;6681;53.254;10.398;2023-01-19T08:34:45;18.63;;;12.23;;
13230;SDS011;6681;53.254;10.398;2023-01-19T08:37:11;19.17;;;10.70;;
13230;SDS011;6681;53.254;10.398;2023-01-19T08:39:37;15.60;;;10.43;;
13230;SDS011;6681;53.254;10.398;2023-01-19T08:42:05;15.03;;;12.37;;
13230;SDS011;6681;53.254;10.398;2023-01-19T08:44:31;15.67;;;11.17;;
13230;SDS011;6681;53.254;10.398;2023-01-19T08:46:57;16.53;;;11.10;;
13230;SDS011;6681;53.254;10.398;2023-01-19T08:49:23;19.20;;;11.27;;
13230;SDS011;6681;53.254;10.398;2023-01-19T08:51:49;23.63;;;11.83;;
13230;SDS011;6681;53.254;10.398;2023-01-19T08:54:15;22.00;;;9.67;;
13230;SDS011;6681;53.254;10.398;2023-01-19T08:56:41;17.13;;;10.47;;
13230;SDS011;6681;53.254;10.398;2023-01-19T08:59:07;15.13;;;10.13;;
13230;SDS011;6681;53.254;10.398;2023-01-19T09:01:32;15.37;;;11.20;;
13230;SDS011;6681;53.254;10.398;2023-01-19T09:03:58;13.03;;;9.70;;
13230;SDS011;6681;53.254;10.398;2023-01-19T09:06:23;21.00;;;11.13;;
13230;SDS011;6681;53.254;10.398;2023-01-19T09:08:49;15.77;;;9.60;;
13230;SDS011;6681;53.254;10.398;2023-01-19T09:11:15;21.10;;;11.33;;
13230;SDS011;6681;53.254;10.398;2023-01-19T09:13:41;17.57;;;10.40;;
13230;SDS011;6681;53.254;10.398;2023-01-19T09:16:07;15.07;;;10.47;;
13230;SDS011;6681;53.254;10.398;2023-01-19T09:18:35;13.07;;;9.37;;
13230;SDS011;6681;53.254;10.398;2023-01-19T09:21:01;18.37;;;10.90;;
13230;SDS011;6681;53.254;10.398;2023-01-19T09:23:28;13.73;;;9.47;;
13230;SDS011;6681;53.254;10.398;2023-01-19T09:25:58;17.10;;;8.67;;
13230;SDS011;6681;53.254;10.398;2023-01-19T09:28:26;15.97;;;9.63;;
13230;SDS011;6681;53.254;10.398;2023-01-19T09:30:52;17.93;;;11.17;;
13230;SDS011;6681;53.254;10.398;2023-01-19T09:33:18;17.87;;;11.17;;
13230;SDS011;6681;53.254;10.398;2023-01-19T09:35:44;17.07;;;8.83;;
13230;SDS011;6681;53.254;10.398;2023-01-19T09:38:12;16.67;;;10.47;;
13230;SDS011;6681;53.254;10.398;2023-01-19T09:40:43;15.00;;;9.90;;
13230;SDS011;6681;53.254;10.398;2023-01-19T09:46:00;17.43;;;11.20;;
13230;SDS011;6681;53.254;10.398;2023-01-19T09:48:47;16.43;;;9.97;;
13230;SDS011;6681;53.254;10.398;2023-01-19T09:51:26;15.80;;;9.33;;
13230;SDS011;6681;53.254;10.398;2023-01-19T09:56:42;16.43;;;9.80;;
13230;SDS011;6681;53.254;10.398;2023-01-19T09:59:16;13.60;;;9.43;;
13230;SDS011;6681;53.254;10.398;2023-01-19T10:10:24;20.73;;;8.73;;
13230;SDS011;6681;53.254;10.398;2023-01-19T10:15:57;12.70;;;8.93;;
13230;SDS011;6681;53.254;10.398;2023-01-19T10:18:44;14.23;;;9.20;;
13230;SDS011;6681;53.254;10.398;2023-01-19T10:23:58;10.47;;;7.97;;
13230;SDS011;6681;53.254;10.398;2023-01-19T10:26:36;12.47;;;9.33;;
13230;SDS011;6681;53.254;10.398;2023-01-19T10:29:14;17.67;;;10.73;;
13230;SDS011;6681;53.254;10.398;2023-01-19T10:31:50;13.73;;;8.73;;
13230;SDS011;6681;53.254;10.398;2023-01-19T10:34:22;10.97;;;6.90;;
13230;SDS011;6681;53.254;10.398;2023-01-19T10:36:48;13.10;;;8.53;;
13230;SDS011;6681;53.254;10.398;2023-01-19T10:39:17;10.53;;;7.83;;
13230;SDS011;6681;53.254;10.398;2023-01-19T10:41:48;10.57;;;7.67;;
13230;SDS011;6681;53.254;10.398;2023-01-19T10:44:23;14.50;;;8.70;;
13230;SDS011;6681;53.254;10.398;2023-01-19T10:46:52;11.03;;;8.73;;
13230;SDS011;6681;53.254;10.398;2023-01-19T10:49:28;10.63;;;8.47;;
13230;SDS011;6681;53.254;10.398;2023-01-19T10:51:59;12.03;;;8.60;;
13230;SDS011;6681;53.254;10.398;2023-01-19T10:54:27;9.77;;;7.60;;
13230;SDS011;6681;53.254;10.398;2023-01-19T10:57:00;12.50;;;8.53;;
13230;SDS011;6681;53.254;10.398;2023-01-19T10:59:35;10.77;;;8.63;;
13230;SDS011;6681;53.254;10.398;2023-01-19T11:04:53;9.83;;;7.97;;
13230;SDS011;6681;53.254;10.398;2023-01-19T11:12:53;9.17;;;8.13;;
13230;SDS011;6681;53.254;10.398;2023-01-19T11:15:24;11.30;;;8.60;;
13230;SDS011;6681;53.254;10.398;2023-01-19T11:17:56;8.80;;;7.33;;
13230;SDS011;6681;53.254;10.398;2023-01-19T11:20:23;9.67;;;8.33;;
13230;SDS011;6681;53.254;10.398;2023-01-19T11:23:06;10.83;;;8.40;;
13230;SDS011;6681;53.254;10.398;2023-01-19T11:25:44;9.43;;;6.93;;
13230;SDS011;6681;53.254;10.398;2023-01-19T11:28:24;8.57;;;6.97;;
13230;SDS011;6681;53.254;10.398;2023-01-19T11:30:58;10.10;;;7.87;;
13230;SDS011;6681;53.254;10.398;2023-01-19T11:33:31;9.43;;;7.50;;
13230;SDS011;6681;53.254;10.398;2023-01-19T11:36:04;15.67;;;8.60;;
13230;SDS011;6681;53.254;10.398;2023-01-19T11:38:39;9.63;;;8.63;;
13230;SDS011;6681;53.254;10.398;2023-01-19T11:41:07;11.07;;;8.37;;
13230;SDS011;6681;53.254;10.398;2023-01-19T11:43:53;9.83;;;7.03;;
13230;SDS011;6681;53.254;10.398;2023-01-19T11:46:30;8.87;;;7.97;;
13230;SDS011;6681;53.254;10.398;2023-01-19T11:49:01;9.47;;;6.87;;
13230;SDS011;6681;53.254;10.398;2023-01-19T11:51:33;9.07;;;7.53;;
13230;SDS011;6681;53.254;10.398;2023-01-19T11:54:08;9.27;;;7.47;;
13230;SDS011;6681;53.254;10.398;2023-01-19T11:56:43;10.63;;;7.40;;
13230;SDS011;6681;53.254;10.398;2023-01-19T11:59:11;7.30;;;6.60;;
13230;SDS011;6681;53.254;10.398;2023-01-19T12:01:38;8.10;;;6.93;;
13230;SDS011;6681;53.254;10.398;2023-01-19T12:04:14;10.90;;;7.60;;
13230;SDS011;6681;53.254;10.398;2023-01-19T12:06:51;9.10;;;7.90;;
13230;SDS011;6681;53.254;10.398;2023-01-19T12:09:29;8.60;;;7.80;;
13230;SDS011;6681;53.254;10.398;2023-01-19T12:12:05;11.70;;;8.33;;
13230;SDS011;6681;53.254;10.398;2023-01-19T12:14:39;8.17;;;7.20;;
13230;SDS011;6681;53.254;10.398;2023-01-19T12:17:13;9.17;;;7.10;;
13230;SDS011;6681;53.254;10.398;2023-01-19T12:19:49;9.10;;;8.17;;
13230;SDS011;6681;53.254;10.398;2023-01-19T12:22:36;10.67;;;8.47;;
13230;SDS011;6681;53.254;10.398;2023-01-19T12:28:15;12.33;;;8.20;;
13230;SDS011;6681;53.254;10.398;2023-01-19T12:30:44;9.77;;;7.37;;
13230;SDS011;6681;53.254;10.398;2023-01-19T12:36:02;10.63;;;7.97;;
13230;SDS011;6681;53.254;10.398;2023-01-19T12:41:33;12.60;;;9.13;;
13230;SDS011;6681;53.254;10.398;2023-01-19T12:46:39;9.90;;;8.83;;
13230;SDS011;6681;53.254;10.398;2023-01-19T12:51:41;13.13;;;9.10;;
13230;SDS011;6681;53.254;10.398;2023-01-19T12:54:07;13.63;;;11.83;;
13230;SDS011;6681;53.254;10.398;2023-01-19T12:57:07;13.77;;;10.20;;
13230;SDS011;6681;53.254;10.398;2023-01-19T12:59:41;14.03;;;10.70;;
13230;SDS011;6681;53.254;10.398;2023-01-19T13:15:52;10.37;;;8.63;;
13230;SDS011;6681;53.254;10.398;2023-01-19T13:18:18;11.37;;;9.03;;
13230;SDS011;6681;53.254;10.398;2023-01-19T13:20:45;10.60;;;8.33;;
13230;SDS011;6681;53.254;10.398;2023-01-19T13:23:28;16.30;;;8.83;;
13230;SDS011;6681;53.254;10.398;2023-01-19T13:26:05;10.40;;;8.27;;
13230;SDS011;6681;53.254;10.398;2023-01-19T13:28:39;9.87;;;8.83;;
13230;SDS011;6681;53.254;10.398;2023-01-19T13:31:07;10.97;;;9.20;;
13230;SDS011;6681;53.254;10.398;2023-01-19T13:34:17;15.43;;;9.67;;
13230;SDS011;6681;53.254;10.398;2023-01-19T13:36:26;12.87;;;9.30;;
13230;SDS011;6681;53.254;10.398;2023-01-19T13:38:53;13.70;;;10.17;;
13230;SDS011;6681;53.254;10.398;2023-01-19T13:41:23;14.60;;;9.23;;
13230;SDS011;6681;53.254;10.398;2023-01-19T13:43:57;13.10;;;9.00;;
13230;SDS011;6681;53.254;10.398;2023-01-19T13:46:31;15.63;;;10.70;;
13230;SDS011;6681;53.254;10.398;2023-01-19T13:49:11;13.00;;;9.63;;
13230;SDS011;6681;53.254;10.398;2023-01-19T13:55:00;17.90;;;9.43;;
13230;SDS011;6681;53.254;10.398;2023-01-19T13:57:27;14.07;;;9.50;;
13230;SDS011;6681;53.254;10.398;2023-01-19T14:02:38;14.13;;;10.00;;
13230;SDS011;6681;53.254;10.398;2023-01-19T14:05:32;13.67;;;9.90;;
13230;SDS011;6681;53.254;10.398;2023-01-19T14:15:43;15.77;;;10.43;;
13230;SDS011;6681;53.254;10.398;2023-01-19T14:20:38;15.57;;;10.70;;
13230;SDS011;6681;53.254;10.398;2023-01-19T14:23:04;15.07;;;11.37;;
13230;SDS011;6681;53.254;10.398;2023-01-19T14:25:32;12.30;;;10.00;;
13230;SDS011;6681;53.254;10.398;2023-01-19T14:33:47;17.23;;;11.67;;
13230;SDS011;6681;53.254;10.398;2023-01-19T14:39:12;12.93;;;9.93;;
13230;SDS011;6681;53.254;10.398;2023-01-19T14:41:45;15.83;;;10.00;;
13230;SDS011;6681;53.254;10.398;2023-01-19T14:44:16;15.70;;;11.70;;
13230;SDS011;6681;53.254;10.398;2023-01-19T14:46:48;20.37;;;10.50;;
13230;SDS011;6681;53.254;10.398;2023-01-19T14:49:27;12.67;;;9.90;;
13230;SDS011;6681;53.254;10.398;2023-01-19T14:52:02;12.97;;;10.43;;
13230;SDS011;6681;53.254;10.398;2023-01-19T14:54:45;14.27;;;9.17;;
13230;SDS011;6681;53.254;10.398;2023-01-19T14:57:12;17.73;;;10.93;;
13230;SDS011;6681;53.254;10.398;2023-01-19T14:59:38;14.67;;;10.43;;
13230;SDS011;6681;53.254;10.398;2023-01-19T15:02:04;18.33;;;11.77;;
13230;SDS011;6681;53.254;10.398;2023-01-19T15:04:30;16.30;;;10.40;;
13230;SDS011;6681;53.254;10.398;2023-01-19T15:06:56;16.77;;;10.47;;
13230;SDS011;6681;53.254;10.398;2023-01-19T15:09:22;14.87;;;9.90;;
13230;SDS011;6681;53.254;10.398;2023-01-19T15:11:48;14.40;;;9.77;;
13230;SDS011;6681;53.254;10.398;2023-01-19T15:14:15;15.97;;;10.30;;
13230;SDS011;6681;53.254;10.398;2023-01-19T15:16:42;17.20;;;10.97;;
13230;SDS011;6681;53.254;10.398;2023-01-19T15:19:12;16.53;;;12.20;;
13230;SDS011;6681;53.254;10.398;2023-01-19T15:21:39;16.63;;;10.23;;
13230;SDS011;6681;53.254;10.398;2023-01-19T15:24:09;13.13;;;10.53;;
13230;SDS011;6681;53.254;10.398;2023-01-19T15:26:36;12.73;;;10.27;;
13230;SDS011;6681;53.254;10.398;2023-01-19T15:29:37;19.13;;;11.10;;
13230;SDS011;6681;53.254;10.398;2023-01-19T15:31:55;15.33;;;10.73;;
13230;SDS011;6681;53.254;10.398;2023-01-19T15:34:21;17.17;;;10.17;;
13230;SDS011;6681;53.254;10.398;2023-01-19T15:36:46;19.00;;;11.47;;
13230;SDS011;6681;53.254;10.398;2023-01-19T15:39:15;18.20;;;11.00;;
13230;SDS011;6681;53.254;10.398;2023-01-19T15:41:46;20.40;;;11.80;;
13230;SDS011;6681;53.254;10.398;2023-01-19T15:44:11;19.20;;;10.70;;
13230;SDS011;6681;53.254;10.398;2023-01-19T15:46:38;14.97;;;11.13;;
13230;SDS011;6681;53.254;10.398;2023-01-19T15:49:04;18.23;;;10.63;;
13230;SDS011;6681;53.254;10.398;2023-01-19T15:51:30;19.10;;;11.90;;
13230;SDS011;6681;53.254;10.398;2023-01-19T15:53:56;15.37;;;10.90;;
13230;SDS011;6681;53.254;10.398;2023-01-19T15:56:23;20.60;;;12.03;;
13230;SDS011;6681;53.254;10.398;2023-01-19T15:58:50;18.03;;;12.30;;
13230;SDS011;6681;53.254;10.398;2023-01-19T16:01:24;18.07;;;11.77;;
13230;SDS011;6681;53.254;10.398;2023-01-19T16:03:59;27.53;;;13.27;;
13230;SDS011;6681;53.254;10.398;2023-01-19T16:06:27;18.80;;;12.77;;
13230;SDS011;6681;53.254;10.398;2023-01-19T16:08:54;17.23;;;13.37;;
13230;SDS011;6681;53.254;10.398;2023-01-19T16:11:24;21.20;;;14.93;;
13230;SDS011;6681;53.254;10.398;2023-01-19T16:13:50;19.23;;;13.43;;
13230;SDS011;6681;53.254;10.398;2023-01-19T16:16:19;24.07;;;15.00;;
13230;SDS011;6681;53.254;10.398;2023-01-19T16:18:47;22.47;;;13.97;;
13230;SDS011;6681;53.254;10.398;2023-01-19T16:21:13;22.60;;;13.47;;
13230;SDS011;6681;53.254;10.398;2023-01-19T16:23:39;18.87;;;15.37;;